To NAV CANADA Home Page Login to a new session Search on AWWS site Disclaimer Vers la page française équivalente Tips FAQ What's new on the site To the Forecasts and Observations / NOTAM section To "File a Flight Plan" website Publications and other links Update of the User's profile FIC Telephone Numbers My Weather Data Folder Route Weather Data Regional Weather Data Local Weather Data To the Forecasts and Observations / NOTAM section
Request Generated 10/19/2018 at 15:59:27 UTC . Weather information available at that time is displayed.

METAR/TAF

SARNIA (CHRIS HADFIELD)/ON    (show WxCam)

METAR CYZR 191500Z AUTO 22015KT 9SM FEW210 12/02 A3006 RMK SLP184=
METAR CYZR 191400Z AUTO 21013G20KT 9SM SCT210 10/02 A3009 RMK SLP196=
METAR CYZR 191300Z AUTO 20009G15KT 9SM CLR 08/01 A3012 RMK SLP205=

TAF CYZR 191340Z 1914/2002 20008G18KT P6SM SCT240
BECMG 1914/1915 21015G25KT
FM191500 21015G25KT P6SM BKN200
FM192000 21015G25KT P6SM SCT040 BKN100 TEMPO 1920/2002 P6SM -SHRA
BKN040 BKN100
RMK FCST BASED ON AUTO OBS. NXT FCST BY 192000Z=
Your time UTC time
Weather data provided by Environment Canada and NAV CANADA